Time;durP1;ratioP1;P1;durP2;ratioP2;P2;SDS_P1;SDS_P2;PMS_P1;PMS_P2;Temp;Humidity;BMP_temperature;BMP_pressure;BME280_temperature;BME280_humidity;BME280_pressure;Samples;Min_cycle;Max_cycle;Signal;HPM_P1;HPM_P2
2022/04/24 00:00:53;;;;;;;4.53;1.45;;;17.60;91.80;;;;;;6306550;22;20064;-66
2022/04/24 00:03:20;;;;;;;5.63;1.55;;;17.70;91.70;;;;;;6278769;22;20010;-66
2022/04/24 00:05:47;;;;;;;2.40;1.20;;;17.70;91.30;;;;;;6305956;22;20094;-66
2022/04/24 00:08:15;;;;;;;1.65;1.38;;;17.80;91.00;;;;;;6306077;22;20026;-66
2022/04/24 00:10:42;;;;;;;2.90;1.27;;;17.80;88.80;;;;;;6278601;22;20268;-66
2022/04/24 00:13:11;;;;;;;2.10;1.20;;;17.90;89.30;;;;;;6278579;22;20489;-66
2022/04/24 00:15:42;;;;;;;3.25;1.38;;;17.90;89.60;;;;;;6305958;22;20003;-66
2022/04/24 00:18:09;;;;;;;5.55;1.40;;;18.00;89.40;;;;;;6305971;22;20110;-66
2022/04/24 00:20:36;;;;;;;4.95;1.00;;;18.00;89.10;;;;;;6305650;22;20422;-66
2022/04/24 00:23:04;;;;;;;1.52;1.10;;;18.00;87.70;;;;;;6279000;22;19999;-66
2022/04/24 00:25:31;;;;;;;3.50;1.33;;;18.10;87.80;;;;;;6305620;22;20021;-66
2022/04/24 00:28:00;;;;;;;3.60;1.15;;;18.10;86.70;;;;;;6304987;22;20007;-66
2022/04/24 00:30:28;;;;;;;2.90;1.13;;;18.20;87.00;;;;;;6305749;22;20002;-66
2022/04/24 00:32:55;;;;;;;3.35;1.52;;;18.30;86.30;;;;;;6278848;22;20041;-66
2022/04/24 00:35:22;;;;;;;2.47;1.23;;;18.30;86.00;;;;;;6305524;22;20422;-66
2022/04/24 00:37:50;;;;;;;3.05;1.20;;;18.30;85.50;;;;;;6305804;22;20109;-66
2022/04/24 00:40:19;;;;;;;2.38;1.70;;;18.30;85.10;;;;;;6305747;22;20007;-66
2022/04/24 00:42:46;;;;;;;1.52;1.00;;;18.40;84.20;;;;;;6305863;22;20418;-65
2022/04/24 00:45:13;;;;;;;1.90;0.90;;;18.50;83.60;;;;;;6305296;22;20003;-66
2022/04/24 00:47:43;;;;;;;4.57;0.90;;;18.50;78.10;;;;;;6305836;22;20025;-65
2022/04/24 00:50:10;;;;;;;1.92;0.85;;;18.60;78.90;;;;;;6254226;22;20054;-65
2022/04/24 00:52:38;;;;;;;2.20;0.70;;;18.70;77.60;;;;;;6278594;22;20007;-65
2022/04/24 00:55:08;;;;;;;2.95;0.80;;;18.70;78.60;;;;;;6278403;22;20082;-65
2022/04/24 00:57:35;;;;;;;2.88;1.20;;;18.60;77.40;;;;;;6305517;22;20010;-65
2022/04/24 01:00:03;;;;;;;5.95;1.20;;;18.70;78.60;;;;;;6305946;22;20007;-65
2022/04/24 01:02:31;;;;;;;2.75;0.90;;;18.70;78.60;;;;;;6305359;22;20426;-65
2022/04/24 01:04:58;;;;;;;1.38;0.50;;;18.80;77.50;;;;;;6305274;22;20006;-66
2022/04/24 01:07:25;;;;;;;1.45;0.60;;;18.80;77.70;;;;;;6305462;22;19995;-66
2022/04/24 01:09:53;;;;;;;1.80;0.73;;;18.80;77.60;;;;;;6305384;22;20501;-65
2022/04/24 01:12:20;;;;;;;1.10;0.52;;;18.80;75.20;;;;;;6305347;22;20468;-65
2022/04/24 01:14:47;;;;;;;1.83;0.80;;;18.80;73.30;;;;;;6305453;22;20003;-66
2022/04/24 01:17:14;;;;;;;0.90;0.50;;;19.00;73.70;;;;;;6305669;22;20038;-65
2022/04/24 01:19:41;;;;;;;1.95;0.60;;;19.10;70.60;;;;;;6305075;22;20416;-65
2022/04/24 01:22:08;;;;;;;2.70;0.77;;;19.20;72.60;;;;;;6304811;22;20311;-65
2022/04/24 01:24:35;;;;;;;1.27;0.70;;;19.20;74.30;;;;;;6305061;22;20326;-65
2022/04/24 01:27:03;;;;;;;2.08;0.80;;;19.20;70.90;;;;;;6305046;22;20003;-66
2022/04/24 01:29:30;;;;;;;0.75;0.50;;;19.30;73.90;;;;;;6305552;22;19995;-66
2022/04/24 01:31:57;;;;;;;4.53;0.68;;;19.30;73.50;;;;;;6304927;22;20035;-65
2022/04/24 01:34:24;;;;;;;2.13;1.00;;;19.30;73.20;;;;;;6304912;22;20106;-65
2022/04/24 01:36:52;;;;;;;1.08;0.50;;;19.30;73.50;;;;;;6305133;22;19999;-65
2022/04/24 01:39:19;;;;;;;1.83;0.63;;;19.30;73.70;;;;;;6304825;22;20315;-65
2022/04/24 01:41:46;;;;;;;1.88;0.75;;;19.30;72.80;;;;;;6277454;22;19999;-65
2022/04/24 01:44:14;;;;;;;1.85;0.60;;;19.30;70.60;;;;;;6304830;22;20011;-65
2022/04/24 01:46:41;;;;;;;2.13;0.50;;;19.50;70.90;;;;;;6304909;22;20045;-65
2022/04/24 01:49:08;;;;;;;3.53;0.65;;;19.40;71.70;;;;;;6304671;22;20095;-65
2022/04/24 01:51:35;;;;;;;0.85;0.50;;;19.40;70.20;;;;;;6304667;22;20038;-66
2022/04/24 01:54:02;;;;;;;1.40;0.60;;;19.40;70.10;;;;;;6304765;22;20055;-65
2022/04/24 01:56:29;;;;;;;3.75;0.80;;;19.50;71.80;;;;;;6277935;22;20011;-65
2022/04/24 01:58:57;;;;;;;3.80;0.50;;;19.40;68.50;;;;;;6277726;22;20440;-65
2022/04/24 02:01:24;;;;;;;1.38;0.60;;;19.40;70.90;;;;;;6304719;22;20014;-65
2022/04/24 02:03:51;;;;;;;1.15;0.60;;;19.40;71.00;;;;;;6277222;22;20300;-66
2022/04/24 02:06:18;;;;;;;0.47;0.47;;;19.30;70.70;;;;;;6304630;22;20003;-66
2022/04/24 02:08:45;;;;;;;3.03;0.70;;;19.40;69.00;;;;;;6304916;22;20074;-65
2022/04/24 02:11:12;;;;;;;1.23;0.60;;;19.50;69.80;;;;;;6304061;22;20061;-65
2022/04/24 02:13:40;;;;;;;1.88;0.85;;;19.40;70.50;;;;;;6304496;22;20003;-65
2022/04/24 02:16:07;;;;;;;1.30;0.50;;;19.50;70.20;;;;;;6304589;22;20002;-66
2022/04/24 02:18:34;;;;;;;3.35;0.70;;;19.50;69.50;;;;;;6304939;22;20009;-66
2022/04/24 02:21:01;;;;;;;1.40;0.60;;;19.60;70.50;;;;;;6304852;22;20077;-66
2022/04/24 02:23:29;;;;;;;0.77;0.52;;;19.50;71.70;;;;;;6304233;22;20434;-66
2022/04/24 02:25:56;;;;;;;2.85;0.90;;;19.60;70.30;;;;;;6304659;22;20078;-66
2022/04/24 02:28:23;;;;;;;2.60;0.90;;;19.60;71.40;;;;;;6304466;22;20294;-66
2022/04/24 02:30:51;;;;;;;1.58;0.50;;;19.50;71.80;;;;;;6304674;22;20091;-66
2022/04/24 02:33:18;;;;;;;0.70;0.70;;;19.60;70.60;;;;;;6277430;22;20098;-66
2022/04/24 02:35:45;;;;;;;4.30;0.88;;;19.60;70.40;;;;;;6304614;22;20000;-66
2022/04/24 02:38:12;;;;;;;3.15;0.88;;;19.60;70.90;;;;;;6304146;22;20011;-66
2022/04/24 02:40:39;;;;;;;2.17;0.80;;;19.60;70.30;;;;;;6304486;22;20012;-66
2022/04/24 02:43:07;;;;;;;3.13;0.77;;;19.60;72.00;;;;;;6304293;22;20018;-66
2022/04/24 02:45:34;;;;;;;1.75;0.68;;;19.70;72.00;;;;;;6304490;22;20000;-66
2022/04/24 02:48:02;;;;;;;3.42;0.68;;;19.70;72.60;;;;;;6303945;22;20079;-66
2022/04/24 02:50:30;;;;;;;0.88;0.57;;;19.70;73.30;;;;;;6304113;22;20321;-66
2022/04/24 02:52:57;;;;;;;1.63;0.60;;;19.70;72.50;;;;;;6306147;22;20060;-66
2022/04/24 02:55:25;;;;;;;1.13;0.57;;;19.70;73.50;;;;;;6306344;22;20003;-66
2022/04/24 02:57:52;;;;;;;4.32;0.75;;;19.70;72.40;;;;;;6306575;22;20442;-66
2022/04/24 03:00:22;;;;;;;1.20;0.70;;;19.80;70.80;;;;;;6279509;22;20007;-66
2022/04/24 03:02:49;;;;;;;;;;;19.80;72.10;;;;;;6306680;22;19999;-66
2022/04/24 03:05:17;;;;;;;6.07;1.02;;;19.80;72.00;;;;;;6278585;22;19942;-66
2022/04/24 03:07:45;;;;;;;0.93;0.50;;;19.80;72.10;;;;;;6279506;22;19995;-66
2022/04/24 03:10:12;;;;;;;1.38;0.60;;;19.80;69.30;;;;;;6306574;22;20049;-66
2022/04/24 03:12:40;;;;;;;3.22;1.08;;;19.70;69.50;;;;;;6306264;22;20012;-66
2022/04/24 03:15:09;;;;;;;1.33;0.65;;;19.70;69.50;;;;;;6306814;22;19999;-66
2022/04/24 03:17:36;;;;;;;2.67;0.52;;;19.80;69.40;;;;;;6279525;22;20363;-66
2022/04/24 03:20:04;;;;;;;3.30;0.82;;;19.80;69.10;;;;;;6279572;22;20002;-66
2022/04/24 03:22:33;;;;;;;3.53;0.85;;;19.80;69.10;;;;;;6306295;22;20430;-66
2022/04/24 03:25:04;;;;;;;2.45;0.65;;;19.80;68.70;;;;;;6306271;22;19996;-66
2022/04/24 03:27:31;;;;;;;2.10;0.80;;;19.80;68.80;;;;;;6279065;22;20003;-66
2022/04/24 03:29:58;;;;;;;3.72;0.80;;;19.80;69.00;;;;;;6279512;22;19995;-66
2022/04/24 03:32:26;;;;;;;1.92;1.10;;;19.90;69.10;;;;;;6306025;22;20019;-66
2022/04/24 03:34:53;;;;;;;2.30;0.88;;;19.90;69.50;;;;;;6279450;22;20439;-66
2022/04/24 03:37:20;;;;;;;1.00;0.73;;;19.90;69.90;;;;;;6306208;22;20006;-65
2022/04/24 03:39:47;;;;;;;1.90;0.85;;;19.90;69.90;;;;;;6278167;22;20030;-65
2022/04/24 03:42:15;;;;;;;1.77;0.60;;;19.90;68.90;;;;;;6306110;22;19999;-66
2022/04/24 03:44:42;;;;;;;1.70;0.75;;;19.90;69.00;;;;;;6306425;22;20430;-66
2022/04/24 03:47:09;;;;;;;2.35;0.57;;;19.90;68.20;;;;;;6279467;22;19999;-66
2022/04/24 03:49:37;;;;;;;3.75;0.98;;;19.80;68.10;;;;;;6306283;22;20353;-66
2022/04/24 03:52:04;;;;;;;3.20;0.90;;;19.80;68.30;;;;;;6305575;22;20011;-66
2022/04/24 03:54:32;;;;;;;1.27;0.63;;;19.80;68.90;;;;;;6306064;22;20000;-66
2022/04/24 03:56:59;;;;;;;1.40;0.50;;;19.80;68.00;;;;;;6305905;22;20010;-66
2022/04/24 03:59:26;;;;;;;2.10;0.70;;;19.80;67.80;;;;;;6305735;22;19995;-66
2022/04/24 04:01:53;;;;;;;1.85;0.80;;;19.80;67.90;;;;;;6305321;22;20028;-66
2022/04/24 04:04:20;;;;;;;1.63;0.80;;;19.80;68.70;;;;;;6306241;22;20009;-67
2022/04/24 04:06:48;;;;;;;2.00;0.80;;;19.90;66.50;;;;;;6306031;22;20003;-67
2022/04/24 04:09:15;;;;;;;2.50;1.00;;;20.00;67.30;;;;;;6306074;22;20426;-66
2022/04/24 04:11:42;;;;;;;1.90;0.77;;;19.90;66.70;;;;;;6278061;22;20452;-66
2022/04/24 04:14:09;;;;;;;2.58;0.70;;;19.80;66.50;;;;;;6306123;22;20377;-67
2022/04/24 04:16:37;;;;;;;2.15;0.80;;;19.80;66.00;;;;;;6305752;22;20056;-67
2022/04/24 04:19:04;;;;;;;1.55;0.63;;;19.80;66.10;;;;;;6305956;22;19999;-67
2022/04/24 04:21:31;;;;;;;6.60;1.10;;;19.80;65.90;;;;;;6305690;22;20333;-66
2022/04/24 04:23:59;;;;;;;1.63;0.57;;;19.90;66.00;;;;;;6305466;22;20030;-66
2022/04/24 04:26:26;;;;;;;1.70;0.65;;;19.90;65.60;;;;;;6305663;22;19999;-66
2022/04/24 04:28:53;;;;;;;1.63;0.45;;;19.90;66.00;;;;;;6305838;22;20422;-66
2022/04/24 04:31:20;;;;;;;2.60;0.70;;;19.80;64.60;;;;;;6305348;22;20014;-66
2022/04/24 04:33:47;;;;;;;0.52;0.40;;;19.90;63.00;;;;;;6305637;22;20060;-67
2022/04/24 04:36:15;;;;;;;1.63;0.50;;;19.90;64.60;;;;;;6305897;22;19999;-67
2022/04/24 04:38:42;;;;;;;2.63;0.60;;;19.90;65.00;;;;;;6305599;22;20019;-67
2022/04/24 04:41:09;;;;;;;2.22;0.82;;;19.90;64.90;;;;;;6305780;22;20078;-66
2022/04/24 04:43:36;;;;;;;1.00;0.60;;;19.90;65.50;;;;;;6305795;22;20002;-66
2022/04/24 04:46:03;;;;;;;2.22;0.70;;;19.80;65.40;;;;;;6305586;22;20090;-67
2022/04/24 04:48:31;;;;;;;1.50;0.63;;;19.80;65.00;;;;;;6305848;22;20006;-66
2022/04/24 04:50:58;;;;;;;2.88;0.52;;;19.80;63.90;;;;;;6305492;22;20052;-67
2022/04/24 04:53:25;;;;;;;0.80;0.43;;;19.80;64.60;;;;;;6278765;22;19999;-66
2022/04/24 04:55:52;;;;;;;2.35;0.70;;;19.90;64.20;;;;;;6305395;22;20322;-66
2022/04/24 04:58:19;;;;;;;1.35;0.68;;;19.80;65.60;;;;;;6305570;22;20048;-66
2022/04/24 05:00:46;;;;;;;0.75;0.40;;;19.80;65.30;;;;;;6278121;22;20414;-66
2022/04/24 05:03:14;;;;;;;0.88;0.45;;;19.80;63.70;;;;;;6305265;22;20003;-66
2022/04/24 05:05:42;;;;;;;1.77;0.90;;;19.80;63.50;;;;;;6305579;22;19995;-66
2022/04/24 05:08:09;;;;;;;1.40;0.82;;;19.80;64.10;;;;;;6305510;22;20006;-66
2022/04/24 05:10:36;;;;;;;1.65;0.80;;;19.80;64.80;;;;;;6305360;22;20027;-66
2022/04/24 05:13:03;;;;;;;0.95;0.40;;;19.80;64.80;;;;;;6305309;22;20086;-66
2022/04/24 05:15:30;;;;;;;1.42;0.55;;;19.80;65.80;;;;;;6305161;22;20372;-66
2022/04/24 05:17:57;;;;;;;1.40;0.40;;;19.80;63.30;;;;;;6277463;22;20033;-66
2022/04/24 05:20:25;;;;;;;1.08;0.40;;;19.80;62.90;;;;;;6304815;22;20003;-67
2022/04/24 05:22:52;;;;;;;0.73;0.47;;;19.80;63.00;;;;;;6305040;22;20003;-67
2022/04/24 05:25:19;;;;;;;0.90;0.60;;;19.80;62.90;;;;;;6277518;22;20027;-67
2022/04/24 05:27:46;;;;;;;1.42;0.60;;;19.80;63.70;;;;;;6304784;22;20083;-66
2022/04/24 05:30:13;;;;;;;0.30;0.30;;;19.80;64.90;;;;;;6305301;22;19999;-66
2022/04/24 05:32:50;;;;;;;0.47;0.40;;;19.80;62.70;;;;;;6304695;22;20041;-66
2022/04/24 05:35:17;;;;;;;1.00;0.63;;;19.80;62.30;;;;;;6279103;22;20000;-66
2022/04/24 05:37:48;;;;;;;1.75;0.80;;;19.80;62.60;;;;;;6277674;22;20006;-66
2022/04/24 05:40:15;;;;;;;2.10;0.52;;;19.80;62.90;;;;;;6278357;22;20296;-67
2022/04/24 05:42:55;;;;;;;2.17;0.60;;;19.80;63.90;;;;;;6277509;22;20011;-66
2022/04/24 05:45:24;;;;;;;1.65;0.70;;;19.80;64.20;;;;;;6304980;22;20007;-67
2022/04/24 05:47:54;;;;;;;1.27;0.45;;;19.80;63.20;;;;;;6305259;22;20007;-67
2022/04/24 05:50:23;;;;;;;1.08;0.57;;;19.80;64.00;;;;;;6278330;22;20430;-66
2022/04/24 05:52:50;;;;;;;1.80;0.65;;;19.80;65.30;;;;;;6304866;22;20007;-66
2022/04/24 05:55:17;;;;;;;0.95;0.60;;;19.70;63.70;;;;;;6277791;22;20007;-66
2022/04/24 05:57:44;;;;;;;0.93;0.60;;;19.70;64.20;;;;;;6305124;22;20074;-67
2022/04/24 06:00:12;;;;;;;1.02;0.60;;;19.80;64.10;;;;;;6304862;22;20479;-66
2022/04/24 06:02:40;;;;;;;1.75;0.73;;;19.80;63.60;;;;;;6278221;22;20371;-66
2022/04/24 06:05:08;;;;;;;0.52;0.35;;;19.70;64.60;;;;;;6252459;22;20441;-66
2022/04/24 06:07:35;;;;;;;2.20;0.60;;;19.80;63.00;;;;;;6304799;22;20022;-66
2022/04/24 06:10:03;;;;;;;0.88;0.60;;;19.70;64.40;;;;;;6304467;22;20330;-67
2022/04/24 06:12:30;;;;;;;1.75;0.80;;;19.70;65.00;;;;;;6304412;22;20338;-66
2022/04/24 06:15:04;;;;;;;1.15;0.60;;;19.70;64.50;;;;;;6277361;22;20003;-66
2022/04/24 06:17:32;;;;;;;1.77;0.60;;;19.70;65.40;;;;;;6304527;22;20048;-66
2022/04/24 06:19:59;;;;;;;1.17;0.40;;;19.70;65.00;;;;;;6304549;22;20003;-68
2022/04/24 06:22:26;;;;;;;0.88;0.55;;;19.60;65.00;;;;;;6304210;22;20011;-66
2022/04/24 06:24:53;;;;;;;2.38;0.50;;;19.70;65.50;;;;;;6304453;22;20006;-67
2022/04/24 06:27:20;;;;;;;1.25;0.70;;;19.60;64.90;;;;;;6304686;22;20006;-67
2022/04/24 06:29:48;;;;;;;1.92;0.65;;;19.60;65.50;;;;;;6304490;22;20006;-67
2022/04/24 06:32:15;;;;;;;2.33;0.70;;;19.70;66.70;;;;;;6277916;22;20015;-66
2022/04/24 06:34:42;;;;;;;3.13;1.00;;;19.80;71.20;;;;;;6304161;22;20000;-66
2022/04/24 06:37:09;;;;;;;3.33;1.00;;;19.80;73.90;;;;;;6276964;22;20505;-66
2022/04/24 06:39:36;;;;;;;3.13;0.98;;;19.80;75.20;;;;;;6304247;22;20047;-66
2022/04/24 06:42:03;;;;;;;2.42;0.93;;;19.80;76.10;;;;;;6304511;22;19999;-66
2022/04/24 06:44:31;;;;;;;1.73;0.55;;;19.70;76.30;;;;;;6304664;22;20422;-66
2022/04/24 06:46:58;;;;;;;6.10;1.00;;;19.70;76.20;;;;;;6304351;22;20008;-67
2022/04/24 06:49:25;;;;;;;1.95;0.80;;;19.70;76.40;;;;;;6303901;22;19999;-66
2022/04/24 06:51:52;;;;;;;1.40;0.73;;;19.70;76.40;;;;;;6304233;22;20007;-67
2022/04/24 06:54:19;;;;;;;3.33;1.05;;;19.60;76.50;;;;;;6304785;22;20418;-67
2022/04/24 06:56:46;;;;;;;4.97;1.00;;;19.60;75.90;;;;;;6304685;22;20000;-66
2022/04/24 06:59:14;;;;;;;4.38;1.10;;;19.50;76.40;;;;;;6304581;22;20418;-66
2022/04/24 07:01:41;;;;;;;3.35;0.88;;;19.50;77.10;;;;;;6304431;22;20324;-66
2022/04/24 07:04:08;;;;;;;2.22;0.90;;;19.50;78.10;;;;;;6304348;22;20351;-66
2022/04/24 07:06:35;;;;;;;3.30;0.95;;;19.50;78.60;;;;;;6304873;22;20394;-66
2022/04/24 07:09:02;;;;;;;6.03;0.88;;;19.40;78.70;;;;;;6305018;22;20064;-66
2022/04/24 07:11:30;;;;;;;4.38;1.00;;;19.40;79.20;;;;;;6276969;22;20432;-66
2022/04/24 07:13:57;;;;;;;4.63;0.95;;;19.30;79.40;;;;;;6303929;22;20003;-66
2022/04/24 07:16:24;;;;;;;2.88;0.90;;;19.30;79.20;;;;;;6304356;22;20207;-66
2022/04/24 07:18:51;;;;;;;2.80;0.80;;;19.30;79.20;;;;;;6305007;22;20000;-66
2022/04/24 07:21:18;;;;;;;2.08;1.00;;;19.30;79.10;;;;;;6304476;22;20056;-66
2022/04/24 07:23:45;;;;;;;3.58;1.00;;;19.30;79.30;;;;;;6304265;22;19999;-66
2022/04/24 07:26:12;;;;;;;3.97;0.90;;;19.20;79.40;;;;;;6304345;22;20010;-66
2022/04/24 07:28:40;;;;;;;3.42;0.98;;;19.20;79.80;;;;;;6304257;22;20079;-66
2022/04/24 07:31:07;;;;;;;0.98;0.75;;;19.20;79.90;;;;;;6304318;22;20082;-66
2022/04/24 07:33:34;;;;;;;2.38;0.95;;;19.20;80.10;;;;;;6304318;22;20090;-65
2022/04/24 07:36:04;;;;;;;3.38;1.02;;;19.10;79.90;;;;;;6276925;22;20070;-65
2022/04/24 07:38:31;;;;;;;2.38;1.20;;;19.10;79.30;;;;;;6306251;22;20019;-66
2022/04/24 07:40:59;;;;;;;3.28;1.05;;;19.10;79.40;;;;;;6306076;22;20307;-66
2022/04/24 07:43:26;;;;;;;3.70;1.13;;;19.10;79.40;;;;;;6305948;22;20312;-66
2022/04/24 07:45:53;;;;;;;3.78;1.38;;;19.10;78.30;;;;;;6306174;22;20330;-66
2022/04/24 07:48:20;;;;;;;2.20;1.20;;;19.20;78.40;;;;;;6306468;22;20019;-66
2022/04/24 07:50:52;;;;;;;2.80;1.10;;;19.20;78.70;;;;;;6305776;22;20474;-66
2022/04/24 07:53:19;;;;;;;2.97;1.30;;;19.20;79.00;;;;;;6306037;22;20417;-66
2022/04/24 07:55:48;;;;;;;3.28;1.20;;;19.20;79.20;;;;;;6278790;22;19999;-66
2022/04/24 07:58:15;;;;;;;4.82;1.13;;;19.20;79.90;;;;;;6279210;22;20007;-66
2022/04/24 08:00:43;;;;;;;2.03;0.88;;;19.20;80.20;;;;;;6278878;22;20393;-66
2022/04/24 08:03:11;;;;;;;2.97;1.10;;;19.10;79.40;;;;;;6278879;22;19999;-66
2022/04/24 08:05:39;;;;;;;1.90;0.98;;;19.10;80.10;;;;;;6306415;22;20022;-66
2022/04/24 08:08:08;;;;;;;3.55;1.00;;;19.00;79.50;;;;;;6278626;22;20003;-66
2022/04/24 08:10:37;;;;;;;2.30;0.93;;;19.10;79.40;;;;;;6278742;22;20079;-66
2022/04/24 08:13:05;;;;;;;4.47;1.02;;;19.00;80.00;;;;;;6278794;22;20078;-66
2022/04/24 08:15:35;;;;;;;1.30;0.82;;;19.00;80.10;;;;;;6278512;22;19995;-66
2022/04/24 08:18:03;;;;;;;5.78;1.10;;;19.00;80.00;;;;;;6305639;22;20377;-66
2022/04/24 08:20:30;;;;;;;3.08;1.30;;;19.00;79.50;;;;;;6278562;22;19999;-66
2022/04/24 08:23:01;;;;;;;1.67;0.93;;;19.00;79.50;;;;;;6278711;22;20007;-66
2022/04/24 08:25:29;;;;;;;7.03;1.40;;;19.00;79.60;;;;;;6305802;22;20102;-66
2022/04/24 08:27:57;;;;;;;3.97;1.10;;;19.00;80.20;;;;;;6305332;22;20036;-66
2022/04/24 08:30:24;;;;;;;4.22;1.35;;;18.90;80.50;;;;;;6277937;22;20592;-66
2022/04/24 08:32:52;;;;;;;4.53;1.30;;;18.90;81.50;;;;;;6305940;22;20019;-66
2022/04/24 08:35:19;;;;;;;4.70;1.20;;;18.80;81.40;;;;;;6305305;22;20029;-66
2022/04/24 08:37:47;;;;;;;1.90;1.20;;;18.80;81.00;;;;;;6304941;22;20011;-66
2022/04/24 08:40:15;;;;;;;2.50;1.27;;;18.90;80.30;;;;;;6305662;22;20019;-66
2022/04/24 08:42:42;;;;;;;3.92;1.27;;;18.80;80.60;;;;;;6278434;22;19995;-66
2022/04/24 08:45:14;;;;;;;3.17;1.27;;;18.80;80.50;;;;;;6305458;22;20007;-66
2022/04/24 08:47:42;;;;;;;2.38;1.02;;;18.80;80.10;;;;;;6279330;22;20168;-66
2022/04/24 08:50:10;;;;;;;1.15;1.00;;;18.80;80.00;;;;;;6304585;22;20007;-66
2022/04/24 08:52:37;;;;;;;2.00;1.10;;;18.80;79.90;;;;;;6305457;22;20430;-66
2022/04/24 08:55:04;;;;;;;3.13;1.30;;;18.80;79.90;;;;;;6278042;22;20578;-66
2022/04/24 08:57:32;;;;;;;2.83;1.05;;;18.80;79.40;;;;;;6305072;22;20010;-66
2022/04/24 08:59:59;;;;;;;4.07;1.20;;;18.80;79.40;;;;;;6305184;22;20061;-66
2022/04/24 09:02:27;;;;;;;5.97;1.73;;;18.80;79.50;;;;;;6305147;22;19999;-66
2022/04/24 09:04:54;;;;;;;3.25;1.38;;;18.80;79.90;;;;;;6278574;22;19995;-66
2022/04/24 09:07:22;;;;;;;5.57;1.20;;;18.80;79.90;;;;;;6305250;22;20011;-66
2022/04/24 09:09:50;;;;;;;2.92;1.15;;;18.70;79.20;;;;;;6278315;22;20003;-66
2022/04/24 09:12:30;;;;;;;2.78;1.15;;;18.70;79.10;;;;;;6278274;22;20008;-66
2022/04/24 09:14:58;;;;;;;2.63;1.30;;;18.70;79.70;;;;;;6305247;22;20003;-66
2022/04/24 09:17:27;;;;;;;1.90;0.95;;;18.70;80.20;;;;;;6278268;22;20231;-66
2022/04/24 09:19:55;;;;;;;2.53;0.82;;;18.60;81.10;;;;;;6304996;22;20003;-66
2022/04/24 09:22:23;;;;;;;4.22;1.02;;;18.60;81.80;;;;;;6278190;22;20082;-66
2022/04/24 09:24:59;;;;;;;5.28;1.10;;;18.50;82.30;;;;;;6304784;22;20311;-66
2022/04/24 09:27:32;;;;;;;4.85;1.25;;;18.60;82.90;;;;;;6305534;22;20429;-66
2022/04/24 09:30:10;;;;;;;4.15;1.45;;;18.50;83.20;;;;;;6304649;22;19999;-66
2022/04/24 09:32:52;;;;;;;5.28;1.15;;;18.50;83.70;;;;;;6277853;22;20007;-66
2022/04/24 09:35:29;;;;;;;2.58;1.20;;;18.40;84.20;;;;;;6277957;22;20003;-66
2022/04/24 09:38:13;;;;;;;6.47;1.50;;;18.40;84.30;;;;;;6304742;22;20010;-66
2022/04/24 09:40:45;;;;;;;1.35;1.00;;;18.30;84.50;;;;;;6304924;22;20006;-66
2022/04/24 09:43:17;;;;;;;2.25;1.23;;;18.30;84.60;;;;;;6277755;22;20121;-66
2022/04/24 09:45:53;;;;;;;1.42;1.10;;;18.30;84.60;;;;;;6304911;22;20102;-66
2022/04/24 09:48:21;;;;;;;4.43;1.60;;;18.30;84.40;;;;;;6304897;22;20048;-66
2022/04/24 09:50:49;;;;;;;4.60;1.35;;;18.30;84.60;;;;;;6277770;22;20469;-66
2022/04/24 09:53:19;;;;;;;5.00;1.30;;;18.30;84.30;;;;;;6304509;22;20021;-66
2022/04/24 09:55:47;;;;;;;4.88;1.30;;;18.30;84.50;;;;;;6304469;22;20007;-66
2022/04/24 09:58:14;;;;;;;4.43;1.33;;;18.30;84.60;;;;;;6252517;22;20011;-66
2022/04/24 10:00:41;;;;;;;3.25;1.40;;;18.30;84.50;;;;;;6252373;22;20029;-66
2022/04/24 10:03:18;;;;;;;3.53;1.40;;;18.30;84.60;;;;;;6304994;22;20005;-66
2022/04/24 10:05:47;;;;;;;3.60;1.50;;;18.30;84.80;;;;;;6304875;22;19996;-66
2022/04/24 10:08:15;;;;;;;2.38;1.38;;;18.30;85.20;;;;;;6277924;22;20145;-66
2022/04/24 10:10:43;;;;;;;1.77;1.10;;;18.20;85.00;;;;;;6277756;22;19995;-66
2022/04/24 10:13:11;;;;;;;1.98;1.40;;;18.20;85.20;;;;;;6278028;22;20056;-66
2022/04/24 10:15:48;;;;;;;3.65;1.30;;;18.20;85.00;;;;;;6304553;22;20307;-66
2022/04/24 10:18:40;;;;;;;1.38;1.20;;;18.20;85.20;;;;;;6277049;22;20494;-66
2022/04/24 10:21:38;;;;;;;3.17;1.27;;;18.30;85.60;;;;;;6277571;22;20438;-66
2022/04/24 10:24:11;;;;;;;3.92;1.48;;;18.20;85.40;;;;;;6277740;22;20010;-66
2022/04/24 10:26:39;;;;;;;3.10;1.30;;;18.30;85.30;;;;;;6304744;22;19999;-66
2022/04/24 10:29:08;;;;;;;5.72;1.70;;;18.30;85.70;;;;;;6252361;22;20422;-66
2022/04/24 10:31:45;;;;;;;2.60;1.25;;;18.30;85.30;;;;;;6277463;22;20006;-66
2022/04/24 10:34:13;;;;;;;4.95;1.50;;;18.20;85.10;;;;;;6277422;22;20327;-67
2022/04/24 10:37:00;;;;;;;2.55;1.33;;;18.20;85.50;;;;;;6304641;22;19999;-66
2022/04/24 10:39:28;;;;;;;3.63;1.40;;;18.20;85.50;;;;;;6278040;22;20438;-66
2022/04/24 10:42:00;;;;;;;5.03;1.50;;;18.30;85.70;;;;;;6304506;22;20000;-66
2022/04/24 10:44:27;;;;;;;2.90;1.30;;;18.20;85.70;;;;;;6277061;22;20468;-66
2022/04/24 10:46:57;;;;;;;3.22;2.25;;;18.30;85.90;;;;;;6276697;22;20531;-66
2022/04/24 10:49:25;;;;;;;3.20;1.73;;;18.20;85.90;;;;;;6278481;22;20461;-66
2022/04/24 10:52:03;;;;;;;5.40;2.47;;;18.20;85.90;;;;;;6276895;22;20012;-66
2022/04/24 10:54:40;;;;;;;3.33;1.30;;;18.20;85.90;;;;;;6305351;22;19995;-66
2022/04/24 10:57:26;;;;;;;2.78;1.75;;;18.20;86.20;;;;;;6277563;22;19999;-66
2022/04/24 10:59:55;;;;;;;3.22;1.45;;;18.20;86.50;;;;;;6277779;22;19999;-66
2022/04/24 11:02:33;;;;;;;3.25;1.60;;;18.20;86.70;;;;;;6277738;22;20022;-66
2022/04/24 11:05:07;;;;;;;4.45;1.85;;;18.20;86.90;;;;;;6304773;22;20420;-66
2022/04/24 11:07:34;;;;;;;2.47;1.23;;;18.10;87.10;;;;;;6304277;22;20033;-66
2022/04/24 11:10:03;;;;;;;2.75;1.23;;;18.10;87.30;;;;;;6304593;22;19999;-66
2022/04/24 11:12:31;;;;;;;2.17;1.20;;;18.20;87.40;;;;;;6305427;22;20018;-66
2022/04/24 11:15:11;;;;;;;3.03;1.27;;;18.10;87.30;;;;;;6253588;22;20007;-66
2022/04/24 11:17:39;;;;;;;3.92;1.50;;;18.10;87.40;;;;;;6278825;22;20119;-66
2022/04/24 11:20:11;;;;;;;2.55;1.40;;;18.00;87.50;;;;;;6306383;22;20003;-66
2022/04/24 11:22:52;;;;;;;3.30;1.60;;;18.00;87.30;;;;;;6254771;22;19999;-66
2022/04/24 11:25:22;;;;;;;4.32;1.42;;;18.00;87.50;;;;;;6306481;22;19999;-66
2022/04/24 11:27:59;;;;;;;1.90;1.25;;;18.00;87.70;;;;;;6305931;22;20003;-66
2022/04/24 11:30:33;;;;;;;2.70;1.20;;;18.00;87.60;;;;;;6280260;22;20049;-66
2022/04/24 11:33:05;;;;;;;2.20;1.15;;;18.00;87.50;;;;;;6306252;22;20062;-66
2022/04/24 11:35:39;;;;;;;2.97;1.60;;;18.00;87.60;;;;;;6306616;22;20110;-66
2022/04/24 11:38:13;;;;;;;3.30;1.42;;;17.90;87.60;;;;;;6306603;22;20441;-66
2022/04/24 11:40:46;;;;;;;3.00;1.50;;;17.90;87.40;;;;;;6306210;22;20057;-66
2022/04/24 11:43:15;;;;;;;1.67;1.08;;;17.90;87.20;;;;;;6279141;22;19995;-67
2022/04/24 11:51:17;;;;;;;2.97;1.42;;;17.90;86.80;;;;;;6305755;22;20010;-66
2022/04/24 11:53:47;;;;;;;2.63;1.00;;;17.90;86.20;;;;;;6305789;22;20003;-66
2022/04/24 11:56:15;;;;;;;;;;;17.90;86.60;;;;;;6279826;22;19995;-66
2022/04/24 11:58:44;;;;;;;2.65;1.10;;;17.90;86.60;;;;;;6279030;22;19952;-66
2022/04/24 12:01:17;;;;;;;1.98;1.13;;;17.90;86.50;;;;;;6305684;22;20004;-66
2022/04/24 12:03:45;;;;;;;2.05;1.00;;;17.90;86.50;;;;;;6305877;22;20393;-66
2022/04/24 12:06:13;;;;;;;1.58;1.00;;;17.90;86.40;;;;;;6304050;22;20003;-66
2022/04/24 12:08:50;;;;;;;2.05;1.10;;;17.90;86.30;;;;;;6279286;22;19995;-66
2022/04/24 12:11:32;;;;;;;2.13;0.98;;;17.90;86.10;;;;;;6252889;22;20017;-66
2022/04/24 12:14:07;;;;;;;5.80;0.95;;;17.90;85.60;;;;;;6306122;22;20007;-66
2022/04/24 12:16:34;;;;;;;1.58;0.90;;;17.80;85.50;;;;;;6306158;22;20007;-66
2022/04/24 12:19:03;;;;;;;1.65;1.27;;;17.90;85.50;;;;;;6305913;22;19995;-66
2022/04/24 12:21:33;;;;;;;1.90;1.00;;;17.90;85.10;;;;;;6305763;22;19995;-66
2022/04/24 12:24:00;;;;;;;1.40;1.10;;;17.90;85.20;;;;;;6304900;22;20438;-66
2022/04/24 12:26:27;;;;;;;1.52;1.10;;;17.80;85.20;;;;;;6278426;22;20010;-66
2022/04/24 12:28:55;;;;;;;1.25;0.90;;;17.80;85.40;;;;;;6305701;22;20018;-66
2022/04/24 12:31:26;;;;;;;1.92;1.13;;;17.80;85.60;;;;;;6278388;22;20007;-66
2022/04/24 12:33:57;;;;;;;1.70;0.80;;;17.70;85.60;;;;;;6278398;22;20010;-66
2022/04/24 12:36:24;;;;;;;1.92;0.95;;;17.80;85.80;;;;;;6278701;22;20008;-66
2022/04/24 12:39:06;;;;;;;1.23;0.90;;;17.70;85.80;;;;;;6305444;22;20446;-66
2022/04/24 12:41:36;;;;;;;1.27;0.70;;;17.70;86.30;;;;;;6279036;22;20003;-66
2022/04/24 12:44:04;;;;;;;1.40;0.80;;;17.70;86.40;;;;;;6252824;22;20426;-65
2022/04/24 12:46:32;;;;;;;3.50;1.10;;;17.70;86.70;;;;;;6278644;22;20053;-66
2022/04/24 12:49:00;;;;;;;1.85;0.98;;;17.60;87.00;;;;;;6305723;22;20074;-66
2022/04/24 12:51:27;;;;;;;1.52;1.00;;;17.50;87.20;;;;;;6305475;22;20000;-66
2022/04/24 12:53:55;;;;;;;1.80;1.00;;;17.60;87.50;;;;;;6278440;22;20330;-66
2022/04/24 12:56:23;;;;;;;1.55;1.00;;;17.50;87.90;;;;;;6305623;22;20307;-66
2022/04/24 12:58:50;;;;;;;3.00;1.15;;;17.50;88.20;;;;;;6277995;22;20007;-66
2022/04/24 13:01:17;;;;;;;3.35;1.20;;;17.40;88.30;;;;;;6305179;22;20010;-66